sensor_id;sensor_type;location;lat;lon;timestamp;P1;durP1;ratioP1;P2;durP2;ratioP2
63203;SDS011;49297;43.210;27.914;2023-12-22T00:01:09;33.90;;;30.48;;
63203;SDS011;49297;43.210;27.914;2023-12-22T00:03:37;33.83;;;30.42;;
63203;SDS011;49297;43.210;27.914;2023-12-22T00:06:02;31.92;;;28.58;;
63203;SDS011;49297;43.210;27.914;2023-12-22T00:08:28;31.33;;;28.05;;
63203;SDS011;49297;43.210;27.914;2023-12-22T00:10:54;33.20;;;29.20;;
63203;SDS011;49297;43.210;27.914;2023-12-22T00:13:24;31.25;;;28.15;;
63203;SDS011;49297;43.210;27.914;2023-12-22T00:15:50;31.42;;;28.02;;
63203;SDS011;49297;43.210;27.914;2023-12-22T00:18:16;30.17;;;26.63;;
63203;SDS011;49297;43.210;27.914;2023-12-22T00:20:42;36.73;;;29.97;;
63203;SDS011;49297;43.210;27.914;2023-12-22T00:23:08;31.00;;;27.80;;
63203;SDS011;49297;43.210;27.914;2023-12-22T00:25:33;31.27;;;25.77;;
63203;SDS011;49297;43.210;27.914;2023-12-22T00:27:59;31.17;;;27.83;;
63203;SDS011;49297;43.210;27.914;2023-12-22T00:30:25;27.77;;;24.87;;
63203;SDS011;49297;43.210;27.914;2023-12-22T00:32:51;28.15;;;23.58;;
63203;SDS011;49297;43.210;27.914;2023-12-22T00:35:18;25.77;;;22.70;;
63203;SDS011;49297;43.210;27.914;2023-12-22T00:37:44;30.50;;;24.87;;
63203;SDS011;49297;43.210;27.914;2023-12-22T00:40:10;27.90;;;24.07;;
63203;SDS011;49297;43.210;27.914;2023-12-22T00:42:36;28.23;;;24.13;;
63203;SDS011;49297;43.210;27.914;2023-12-22T00:45:01;32.72;;;25.95;;
63203;SDS011;49297;43.210;27.914;2023-12-22T00:47:28;32.05;;;26.13;;
63203;SDS011;49297;43.210;27.914;2023-12-22T00:49:54;33.00;;;29.15;;
63203;SDS011;49297;43.210;27.914;2023-12-22T00:52:19;43.67;;;36.95;;
63203;SDS011;49297;43.210;27.914;2023-12-22T00:54:45;45.80;;;37.15;;
63203;SDS011;49297;43.210;27.914;2023-12-22T00:57:11;48.28;;;38.75;;
63203;SDS011;49297;43.210;27.914;2023-12-22T00:59:37;41.00;;;36.60;;
63203;SDS011;49297;43.210;27.914;2023-12-22T01:02:03;59.63;;;43.25;;
63203;SDS011;49297;43.210;27.914;2023-12-22T01:04:29;52.65;;;40.92;;
63203;SDS011;49297;43.210;27.914;2023-12-22T01:06:55;41.53;;;37.03;;
63203;SDS011;49297;43.210;27.914;2023-12-22T01:09:20;46.45;;;40.35;;
63203;SDS011;49297;43.210;27.914;2023-12-22T01:11:46;63.28;;;45.45;;
63203;SDS011;49297;43.210;27.914;2023-12-22T01:14:13;45.73;;;39.97;;
63203;SDS011;49297;43.210;27.914;2023-12-22T01:16:39;51.10;;;42.05;;
63203;SDS011;49297;43.210;27.914;2023-12-22T01:19:05;43.60;;;37.87;;
63203;SDS011;49297;43.210;27.914;2023-12-22T01:21:33;56.87;;;43.90;;
63203;SDS011;49297;43.210;27.914;2023-12-22T01:23:59;52.23;;;42.70;;
63203;SDS011;49297;43.210;27.914;2023-12-22T01:26:25;51.55;;;41.58;;
63203;SDS011;49297;43.210;27.914;2023-12-22T01:28:51;49.50;;;43.65;;
63203;SDS011;49297;43.210;27.914;2023-12-22T01:31:17;55.05;;;43.38;;
63203;SDS011;49297;43.210;27.914;2023-12-22T01:33:42;47.25;;;42.03;;
63203;SDS011;49297;43.210;27.914;2023-12-22T01:36:08;47.63;;;41.17;;
63203;SDS011;49297;43.210;27.914;2023-12-22T01:38:33;53.53;;;44.72;;
63203;SDS011;49297;43.210;27.914;2023-12-22T01:40:59;48.88;;;41.42;;
63203;SDS011;49297;43.210;27.914;2023-12-22T01:43:25;41.45;;;36.85;;
63203;SDS011;49297;43.210;27.914;2023-12-22T01:45:52;42.13;;;37.53;;
63203;SDS011;49297;43.210;27.914;2023-12-22T01:48:21;39.60;;;35.05;;
63203;SDS011;49297;43.210;27.914;2023-12-22T01:50:52;43.50;;;36.78;;
63203;SDS011;49297;43.210;27.914;2023-12-22T01:53:19;39.95;;;35.67;;
63203;SDS011;49297;43.210;27.914;2023-12-22T01:55:46;44.83;;;37.80;;
63203;SDS011;49297;43.210;27.914;2023-12-22T01:58:13;39.77;;;35.43;;
63203;SDS011;49297;43.210;27.914;2023-12-22T02:00:39;44.60;;;34.40;;
63203;SDS011;49297;43.210;27.914;2023-12-22T02:03:06;38.15;;;34.25;;
63203;SDS011;49297;43.210;27.914;2023-12-22T02:05:33;38.78;;;34.65;;
63203;SDS011;49297;43.210;27.914;2023-12-22T02:07:59;38.15;;;34.13;;
63203;SDS011;49297;43.210;27.914;2023-12-22T02:10:25;42.17;;;33.70;;
63203;SDS011;49297;43.210;27.914;2023-12-22T02:12:51;33.58;;;29.98;;
63203;SDS011;49297;43.210;27.914;2023-12-22T02:15:17;35.10;;;31.23;;
63203;SDS011;49297;43.210;27.914;2023-12-22T02:17:44;33.83;;;30.25;;
63203;SDS011;49297;43.210;27.914;2023-12-22T02:20:16;36.70;;;31.00;;
63203;SDS011;49297;43.210;27.914;2023-12-22T02:22:43;34.13;;;30.73;;
63203;SDS011;49297;43.210;27.914;2023-12-22T02:25:09;31.60;;;28.10;;
63203;SDS011;49297;43.210;27.914;2023-12-22T02:27:36;34.33;;;28.63;;
63203;SDS011;49297;43.210;27.914;2023-12-22T02:32:38;30.95;;;26.73;;
63203;SDS011;49297;43.210;27.914;2023-12-22T02:35:14;34.05;;;29.73;;
63203;SDS011;49297;43.210;27.914;2023-12-22T02:37:42;35.50;;;27.23;;
63203;SDS011;49297;43.210;27.914;2023-12-22T02:40:10;31.93;;;28.43;;
63203;SDS011;49297;43.210;27.914;2023-12-22T02:42:37;33.00;;;29.48;;
63203;SDS011;49297;43.210;27.914;2023-12-22T02:45:04;35.27;;;26.00;;
63203;SDS011;49297;43.210;27.914;2023-12-22T02:47:31;31.20;;;26.90;;
63203;SDS011;49297;43.210;27.914;2023-12-22T02:49:58;36.20;;;29.75;;
63203;SDS011;49297;43.210;27.914;2023-12-22T02:52:24;35.17;;;31.48;;
63203;SDS011;49297;43.210;27.914;2023-12-22T02:54:50;35.58;;;31.70;;
63203;SDS011;49297;43.210;27.914;2023-12-22T02:57:16;41.40;;;36.47;;
63203;SDS011;49297;43.210;27.914;2023-12-22T02:59:42;43.17;;;37.93;;
63203;SDS011;49297;43.210;27.914;2023-12-22T03:02:08;45.40;;;40.47;;
63203;SDS011;49297;43.210;27.914;2023-12-22T03:04:33;42.65;;;38.00;;
63203;SDS011;49297;43.210;27.914;2023-12-22T03:06:59;41.97;;;37.72;;
63203;SDS011;49297;43.210;27.914;2023-12-22T03:09:25;39.92;;;35.65;;
63203;SDS011;49297;43.210;27.914;2023-12-22T03:11:50;41.58;;;36.83;;
63203;SDS011;49297;43.210;27.914;2023-12-22T03:14:19;42.70;;;38.10;;
63203;SDS011;49297;43.210;27.914;2023-12-22T03:16:54;46.63;;;37.70;;
63203;SDS011;49297;43.210;27.914;2023-12-22T03:19:20;48.03;;;43.07;;
63203;SDS011;49297;43.210;27.914;2023-12-22T03:21:48;46.97;;;41.95;;
63203;SDS011;49297;43.210;27.914;2023-12-22T03:24:13;50.83;;;42.13;;
63203;SDS011;49297;43.210;27.914;2023-12-22T03:26:39;47.03;;;42.15;;
63203;SDS011;49297;43.210;27.914;2023-12-22T03:29:07;49.58;;;44.13;;
63203;SDS011;49297;43.210;27.914;2023-12-22T03:31:32;52.42;;;41.33;;
63203;SDS011;49297;43.210;27.914;2023-12-22T03:33:58;42.65;;;38.13;;
63203;SDS011;49297;43.210;27.914;2023-12-22T03:36:24;49.13;;;38.42;;
63203;SDS011;49297;43.210;27.914;2023-12-22T03:38:50;46.35;;;38.05;;
63203;SDS011;49297;43.210;27.914;2023-12-22T03:41:16;42.15;;;37.78;;
63203;SDS011;49297;43.210;27.914;2023-12-22T03:43:41;43.95;;;39.25;;
63203;SDS011;49297;43.210;27.914;2023-12-22T03:46:07;46.53;;;37.42;;
63203;SDS011;49297;43.210;27.914;2023-12-22T03:48:33;50.23;;;42.40;;
63203;SDS011;49297;43.210;27.914;2023-12-22T03:50:59;41.03;;;37.07;;
63203;SDS011;49297;43.210;27.914;2023-12-22T03:53:24;41.00;;;36.57;;
63203;SDS011;49297;43.210;27.914;2023-12-22T03:55:50;55.97;;;46.90;;
63203;SDS011;49297;43.210;27.914;2023-12-22T03:58:16;42.73;;;37.47;;
63203;SDS011;49297;43.210;27.914;2023-12-22T04:00:41;43.97;;;38.92;;
63203;SDS011;49297;43.210;27.914;2023-12-22T04:03:08;38.08;;;34.03;;
63203;SDS011;49297;43.210;27.914;2023-12-22T04:05:34;36.83;;;32.88;;
63203;SDS011;49297;43.210;27.914;2023-12-22T04:08:00;37.97;;;32.28;;
63203;SDS011;49297;43.210;27.914;2023-12-22T04:10:26;47.28;;;35.13;;
63203;SDS011;49297;43.210;27.914;2023-12-22T04:12:51;39.95;;;35.55;;
63203;SDS011;49297;43.210;27.914;2023-12-22T04:15:17;41.75;;;35.67;;
63203;SDS011;49297;43.210;27.914;2023-12-22T04:17:43;41.15;;;36.75;;
63203;SDS011;49297;43.210;27.914;2023-12-22T04:20:09;46.80;;;37.83;;
63203;SDS011;49297;43.210;27.914;2023-12-22T04:22:35;47.20;;;38.42;;
63203;SDS011;49297;43.210;27.914;2023-12-22T04:25:00;44.67;;;38.97;;
63203;SDS011;49297;43.210;27.914;2023-12-22T04:27:26;42.77;;;38.27;;
63203;SDS011;49297;43.210;27.914;2023-12-22T04:29:51;43.80;;;36.23;;
63203;SDS011;49297;43.210;27.914;2023-12-22T04:32:17;38.28;;;33.45;;
63203;SDS011;49297;43.210;27.914;2023-12-22T04:34:43;39.17;;;32.75;;
63203;SDS011;49297;43.210;27.914;2023-12-22T04:37:09;37.67;;;31.60;;
63203;SDS011;49297;43.210;27.914;2023-12-22T04:39:35;37.07;;;33.13;;
63203;SDS011;49297;43.210;27.914;2023-12-22T04:42:00;44.87;;;35.03;;
63203;SDS011;49297;43.210;27.914;2023-12-22T04:44:26;38.83;;;34.63;;
63203;SDS011;49297;43.210;27.914;2023-12-22T04:46:52;41.30;;;34.53;;
63203;SDS011;49297;43.210;27.914;2023-12-22T04:49:17;40.33;;;34.50;;
63203;SDS011;49297;43.210;27.914;2023-12-22T04:51:43;50.40;;;40.63;;
63203;SDS011;49297;43.210;27.914;2023-12-22T04:54:09;43.03;;;38.45;;
63203;SDS011;49297;43.210;27.914;2023-12-22T04:56:35;42.92;;;38.33;;
63203;SDS011;49297;43.210;27.914;2023-12-22T04:59:01;41.38;;;35.95;;
63203;SDS011;49297;43.210;27.914;2023-12-22T05:01:26;38.10;;;33.97;;
63203;SDS011;49297;43.210;27.914;2023-12-22T05:03:52;39.22;;;34.00;;
63203;SDS011;49297;43.210;27.914;2023-12-22T05:06:19;50.13;;;42.88;;
63203;SDS011;49297;43.210;27.914;2023-12-22T05:08:45;38.38;;;33.58;;
63203;SDS011;49297;43.210;27.914;2023-12-22T05:11:11;45.80;;;39.60;;
63203;SDS011;49297;43.210;27.914;2023-12-22T05:13:38;42.53;;;37.95;;
63203;SDS011;49297;43.210;27.914;2023-12-22T05:16:03;43.25;;;38.70;;
63203;SDS011;49297;43.210;27.914;2023-12-22T05:18:30;41.15;;;36.83;;
63203;SDS011;49297;43.210;27.914;2023-12-22T05:20:55;42.30;;;36.40;;
63203;SDS011;49297;43.210;27.914;2023-12-22T05:23:21;41.00;;;36.63;;
63203;SDS011;49297;43.210;27.914;2023-12-22T05:25:47;41.33;;;36.53;;
63203;SDS011;49297;43.210;27.914;2023-12-22T05:28:12;42.42;;;37.38;;
63203;SDS011;49297;43.210;27.914;2023-12-22T05:30:38;40.28;;;35.97;;
63203;SDS011;49297;43.210;27.914;2023-12-22T05:33:06;46.15;;;38.75;;
63203;SDS011;49297;43.210;27.914;2023-12-22T05:35:32;41.28;;;36.83;;
63203;SDS011;49297;43.210;27.914;2023-12-22T05:37:57;43.40;;;36.08;;
63203;SDS011;49297;43.210;27.914;2023-12-22T05:40:23;44.17;;;39.30;;
63203;SDS011;49297;43.210;27.914;2023-12-22T05:42:49;43.05;;;38.67;;
63203;SDS011;49297;43.210;27.914;2023-12-22T05:45:15;50.37;;;40.47;;
63203;SDS011;49297;43.210;27.914;2023-12-22T05:47:41;44.03;;;38.17;;
63203;SDS011;49297;43.210;27.914;2023-12-22T05:50:07;42.53;;;36.95;;
63203;SDS011;49297;43.210;27.914;2023-12-22T05:52:33;46.75;;;37.88;;
63203;SDS011;49297;43.210;27.914;2023-12-22T05:54:59;42.07;;;37.57;;
63203;SDS011;49297;43.210;27.914;2023-12-22T05:57:25;44.03;;;39.53;;
63203;SDS011;49297;43.210;27.914;2023-12-22T05:59:51;43.33;;;38.05;;
63203;SDS011;49297;43.210;27.914;2023-12-22T06:02:17;40.05;;;35.85;;
63203;SDS011;49297;43.210;27.914;2023-12-22T06:04:43;42.22;;;36.65;;
63203;SDS011;49297;43.210;27.914;2023-12-22T06:07:10;38.80;;;34.60;;
63203;SDS011;49297;43.210;27.914;2023-12-22T06:09:36;44.08;;;36.63;;
63203;SDS011;49297;43.210;27.914;2023-12-22T06:12:02;43.50;;;37.90;;
63203;SDS011;49297;43.210;27.914;2023-12-22T06:14:28;48.55;;;40.72;;
63203;SDS011;49297;43.210;27.914;2023-12-22T06:16:54;45.25;;;39.92;;
63203;SDS011;49297;43.210;27.914;2023-12-22T06:19:22;47.08;;;38.38;;
63203;SDS011;49297;43.210;27.914;2023-12-22T06:21:50;41.97;;;37.05;;
63203;SDS011;49297;43.210;27.914;2023-12-22T06:24:16;39.83;;;35.58;;
63203;SDS011;49297;43.210;27.914;2023-12-22T06:26:42;41.58;;;37.13;;
63203;SDS011;49297;43.210;27.914;2023-12-22T06:29:07;38.40;;;34.07;;
63203;SDS011;49297;43.210;27.914;2023-12-22T06:31:34;44.90;;;36.47;;
63203;SDS011;49297;43.210;27.914;2023-12-22T06:34:00;39.47;;;35.37;;
63203;SDS011;49297;43.210;27.914;2023-12-22T06:36:27;40.67;;;35.70;;
63203;SDS011;49297;43.210;27.914;2023-12-22T06:38:55;46.83;;;40.08;;
63203;SDS011;49297;43.210;27.914;2023-12-22T06:41:25;46.83;;;37.38;;
63203;SDS011;49297;43.210;27.914;2023-12-22T06:43:52;43.17;;;36.35;;
63203;SDS011;49297;43.210;27.914;2023-12-22T06:46:26;52.33;;;39.10;;
63203;SDS011;49297;43.210;27.914;2023-12-22T06:48:53;41.60;;;36.42;;
63203;SDS011;49297;43.210;27.914;2023-12-22T06:51:24;43.70;;;36.08;;
63203;SDS011;49297;43.210;27.914;2023-12-22T06:53:51;53.40;;;43.85;;
63203;SDS011;49297;43.210;27.914;2023-12-22T06:56:18;58.22;;;43.78;;
63203;SDS011;49297;43.210;27.914;2023-12-22T06:58:45;57.67;;;45.33;;
63203;SDS011;49297;43.210;27.914;2023-12-22T07:03:52;57.03;;;45.13;;
63203;SDS011;49297;43.210;27.914;2023-12-22T07:06:19;53.23;;;45.17;;
63203;SDS011;49297;43.210;27.914;2023-12-22T07:11:42;53.42;;;40.40;;
63203;SDS011;49297;43.210;27.914;2023-12-22T07:14:11;48.58;;;42.35;;
63203;SDS011;49297;43.210;27.914;2023-12-22T07:16:37;48.17;;;42.75;;
63203;SDS011;49297;43.210;27.914;2023-12-22T07:19:03;52.70;;;44.63;;
63203;SDS011;49297;43.210;27.914;2023-12-22T07:21:30;53.17;;;45.20;;
63203;SDS011;49297;43.210;27.914;2023-12-22T07:23:56;52.83;;;44.85;;
63203;SDS011;49297;43.210;27.914;2023-12-22T07:26:23;55.80;;;44.00;;
63203;SDS011;49297;43.210;27.914;2023-12-22T07:28:52;54.20;;;44.40;;
63203;SDS011;49297;43.210;27.914;2023-12-22T07:31:18;55.38;;;45.15;;
63203;SDS011;49297;43.210;27.914;2023-12-22T07:33:44;56.67;;;43.80;;
63203;SDS011;49297;43.210;27.914;2023-12-22T07:36:10;61.80;;;48.70;;
63203;SDS011;49297;43.210;27.914;2023-12-22T07:38:36;57.43;;;45.83;;
63203;SDS011;49297;43.210;27.914;2023-12-22T07:41:04;53.97;;;45.85;;
63203;SDS011;49297;43.210;27.914;2023-12-22T07:43:30;60.70;;;47.43;;
63203;SDS011;49297;43.210;27.914;2023-12-22T07:45:57;69.40;;;48.72;;
63203;SDS011;49297;43.210;27.914;2023-12-22T07:48:23;54.38;;;43.60;;
63203;SDS011;49297;43.210;27.914;2023-12-22T07:50:49;58.92;;;43.17;;
63203;SDS011;49297;43.210;27.914;2023-12-22T07:53:15;62.35;;;47.53;;
63203;SDS011;49297;43.210;27.914;2023-12-22T07:55:41;51.10;;;41.30;;
63203;SDS011;49297;43.210;27.914;2023-12-22T07:58:10;54.15;;;41.55;;
63203;SDS011;49297;43.210;27.914;2023-12-22T08:00:36;53.45;;;41.60;;
63203;SDS011;49297;43.210;27.914;2023-12-22T08:03:02;50.13;;;39.38;;
63203;SDS011;49297;43.210;27.914;2023-12-22T08:05:28;47.33;;;39.87;;
63203;SDS011;49297;43.210;27.914;2023-12-22T08:07:55;46.10;;;38.57;;
63203;SDS011;49297;43.210;27.914;2023-12-22T08:12:57;54.28;;;44.00;;
63203;SDS011;49297;43.210;27.914;2023-12-22T08:15:23;45.75;;;38.28;;
63203;SDS011;49297;43.210;27.914;2023-12-22T08:17:49;48.97;;;38.93;;
63203;SDS011;49297;43.210;27.914;2023-12-22T08:20:19;52.25;;;38.03;;
63203;SDS011;49297;43.210;27.914;2023-12-22T08:51:27;37.33;;;29.35;;
63203;SDS011;49297;43.210;27.914;2023-12-22T08:53:53;23.58;;;20.27;;
63203;SDS011;49297;43.210;27.914;2023-12-22T08:56:23;24.08;;;16.48;;
63203;SDS011;49297;43.210;27.914;2023-12-22T08:58:52;16.17;;;14.13;;
63203;SDS011;49297;43.210;27.914;2023-12-22T09:01:21;16.42;;;13.13;;
63203;SDS011;49297;43.210;27.914;2023-12-22T09:03:48;15.05;;;13.38;;
63203;SDS011;49297;43.210;27.914;2023-12-22T09:06:17;22.58;;;14.48;;
63203;SDS011;49297;43.210;27.914;2023-12-22T09:08:44;17.52;;;14.07;;
63203;SDS011;49297;43.210;27.914;2023-12-22T09:11:13;20.60;;;15.18;;
63203;SDS011;49297;43.210;27.914;2023-12-22T09:13:41;18.73;;;14.02;;
63203;SDS011;49297;43.210;27.914;2023-12-22T09:16:08;16.83;;;12.02;;
63203;SDS011;49297;43.210;27.914;2023-12-22T09:18:35;20.60;;;11.98;;
63203;SDS011;49297;43.210;27.914;2023-12-22T09:21:02;13.00;;;11.48;;
63203;SDS011;49297;43.210;27.914;2023-12-22T09:23:28;16.45;;;13.57;;
63203;SDS011;49297;43.210;27.914;2023-12-22T09:25:54;18.58;;;15.50;;
63203;SDS011;49297;43.210;27.914;2023-12-22T09:28:20;22.02;;;19.55;;
63203;SDS011;49297;43.210;27.914;2023-12-22T09:30:46;33.92;;;26.10;;
63203;SDS011;49297;43.210;27.914;2023-12-22T09:33:12;38.00;;;28.88;;
63203;SDS011;49297;43.210;27.914;2023-12-22T09:35:38;38.55;;;28.33;;
63203;SDS011;49297;43.210;27.914;2023-12-22T09:38:07;32.17;;;25.73;;
63203;SDS011;49297;43.210;27.914;2023-12-22T09:40:35;33.92;;;28.00;;
63203;SDS011;49297;43.210;27.914;2023-12-22T09:43:02;32.43;;;28.93;;
63203;SDS011;49297;43.210;27.914;2023-12-22T09:45:29;33.08;;;28.50;;
63203;SDS011;49297;43.210;27.914;2023-12-22T09:47:56;38.83;;;29.83;;
63203;SDS011;49297;43.210;27.914;2023-12-22T09:50:24;46.03;;;33.40;;
63203;SDS011;49297;43.210;27.914;2023-12-22T09:52:51;45.55;;;33.90;;
63203;SDS011;49297;43.210;27.914;2023-12-22T09:55:17;37.97;;;33.80;;
63203;SDS011;49297;43.210;27.914;2023-12-22T09:57:44;43.13;;;32.78;;
63203;SDS011;49297;43.210;27.914;2023-12-22T10:00:14;45.75;;;36.70;;
63203;SDS011;49297;43.210;27.914;2023-12-22T10:02:41;53.67;;;37.83;;
63203;SDS011;49297;43.210;27.914;2023-12-22T10:05:08;44.92;;;36.03;;
63203;SDS011;49297;43.210;27.914;2023-12-22T10:07:35;44.55;;;36.45;;
63203;SDS011;49297;43.210;27.914;2023-12-22T10:10:03;43.40;;;38.38;;
63203;SDS011;49297;43.210;27.914;2023-12-22T10:12:29;41.38;;;35.22;;
63203;SDS011;49297;43.210;27.914;2023-12-22T10:14:59;35.65;;;31.27;;
63203;SDS011;49297;43.210;27.914;2023-12-22T10:17:25;40.25;;;34.20;;
63203;SDS011;49297;43.210;27.914;2023-12-22T10:19:51;44.87;;;35.37;;
63203;SDS011;49297;43.210;27.914;2023-12-22T10:22:17;39.50;;;28.45;;
63203;SDS011;49297;43.210;27.914;2023-12-22T10:24:46;33.03;;;25.65;;
63203;SDS011;49297;43.210;27.914;2023-12-22T10:27:13;38.35;;;29.33;;
63203;SDS011;49297;43.210;27.914;2023-12-22T10:29:40;49.70;;;30.05;;
63203;SDS011;49297;43.210;27.914;2023-12-22T10:32:07;40.30;;;30.02;;
63203;SDS011;49297;43.210;27.914;2023-12-22T10:34:34;40.78;;;32.58;;
63203;SDS011;49297;43.210;27.914;2023-12-22T10:37:00;40.53;;;28.83;;
63203;SDS011;49297;43.210;27.914;2023-12-22T10:39:30;44.42;;;27.88;;
63203;SDS011;49297;43.210;27.914;2023-12-22T10:41:57;36.28;;;28.10;;
63203;SDS011;49297;43.210;27.914;2023-12-22T10:44:27;33.10;;;23.33;;
63203;SDS011;49297;43.210;27.914;2023-12-22T10:46:54;22.52;;;17.75;;
63203;SDS011;49297;43.210;27.914;2023-12-22T10:49:20;20.63;;;14.10;;
63203;SDS011;49297;43.210;27.914;2023-12-22T10:51:47;20.30;;;15.07;;
63203;SDS011;49297;43.210;27.914;2023-12-22T10:54:13;19.20;;;15.60;;
63203;SDS011;49297;43.210;27.914;2023-12-22T10:56:39;20.77;;;14.30;;
63203;SDS011;49297;43.210;27.914;2023-12-22T10:59:06;17.27;;;14.10;;
63203;SDS011;49297;43.210;27.914;2023-12-22T11:01:33;16.23;;;13.02;;
63203;SDS011;49297;43.210;27.914;2023-12-22T11:04:07;16.80;;;14.15;;
63203;SDS011;49297;43.210;27.914;2023-12-22T11:06:39;22.13;;;14.85;;
63203;SDS011;49297;43.210;27.914;2023-12-22T11:09:07;21.00;;;13.38;;
63203;SDS011;49297;43.210;27.914;2023-12-22T11:11:37;18.83;;;11.45;;
63203;SDS011;49297;43.210;27.914;2023-12-22T11:14:05;19.85;;;12.70;;
63203;SDS011;49297;43.210;27.914;2023-12-22T11:16:33;15.93;;;13.13;;
63203;SDS011;49297;43.210;27.914;2023-12-22T11:19:03;15.07;;;12.07;;
63203;SDS011;49297;43.210;27.914;2023-12-22T11:21:30;26.25;;;12.73;;
63203;SDS011;49297;43.210;27.914;2023-12-22T11:23:56;17.38;;;12.77;;
63203;SDS011;49297;43.210;27.914;2023-12-22T11:26:24;15.48;;;12.25;;
63203;SDS011;49297;43.210;27.914;2023-12-22T11:28:51;17.88;;;12.65;;
63203;SDS011;49297;43.210;27.914;2023-12-22T11:31:18;14.57;;;10.75;;
63203;SDS011;49297;43.210;27.914;2023-12-22T11:33:46;12.48;;;10.63;;
63203;SDS011;49297;43.210;27.914;2023-12-22T11:36:13;13.02;;;11.00;;
63203;SDS011;49297;43.210;27.914;2023-12-22T11:38:40;17.40;;;11.98;;
63203;SDS011;49297;43.210;27.914;2023-12-22T11:41:15;14.68;;;12.38;;
63203;SDS011;49297;43.210;27.914;2023-12-22T11:43:44;20.02;;;14.25;;
63203;SDS011;49297;43.210;27.914;2023-12-22T11:46:12;17.43;;;13.90;;
63203;SDS011;49297;43.210;27.914;2023-12-22T11:48:38;22.42;;;17.27;;
63203;SDS011;49297;43.210;27.914;2023-12-22T11:51:13;24.55;;;21.30;;
63203;SDS011;49297;43.210;27.914;2023-12-22T11:53:42;31.95;;;24.92;;
63203;SDS011;49297;43.210;27.914;2023-12-22T11:56:08;34.00;;;23.27;;
63203;SDS011;49297;43.210;27.914;2023-12-22T11:58:45;25.07;;;22.40;;
63203;SDS011;49297;43.210;27.914;2023-12-22T12:01:21;28.20;;;22.40;;
63203;SDS011;49297;43.210;27.914;2023-12-22T12:03:50;33.35;;;22.85;;
63203;SDS011;49297;43.210;27.914;2023-12-22T12:06:30;28.00;;;23.77;;
63203;SDS011;49297;43.210;27.914;2023-12-22T12:09:03;26.70;;;22.10;;
63203;SDS011;49297;43.210;27.914;2023-12-22T12:14:21;34.33;;;21.85;;
63203;SDS011;49297;43.210;27.914;2023-12-22T12:16:55;26.02;;;23.20;;
63203;SDS011;49297;43.210;27.914;2023-12-22T12:19:38;27.38;;;23.23;;
63203;SDS011;49297;43.210;27.914;2023-12-22T12:22:04;26.15;;;21.25;;
63203;SDS011;49297;43.210;27.914;2023-12-22T12:24:31;32.53;;;22.73;;
63203;SDS011;49297;43.210;27.914;2023-12-22T12:26:57;29.17;;;23.87;;
63203;SDS011;49297;43.210;27.914;2023-12-22T12:29:23;28.77;;;24.40;;
63203;SDS011;49297;43.210;27.914;2023-12-22T12:31:49;39.10;;;24.65;;
63203;SDS011;49297;43.210;27.914;2023-12-22T12:34:14;37.03;;;26.15;;
63203;SDS011;49297;43.210;27.914;2023-12-22T12:36:43;30.17;;;25.55;;
63203;SDS011;49297;43.210;27.914;2023-12-22T12:39:10;35.28;;;27.05;;
63203;SDS011;49297;43.210;27.914;2023-12-22T12:41:40;37.47;;;30.65;;
63203;SDS011;49297;43.210;27.914;2023-12-22T12:44:09;42.83;;;29.83;;
63203;SDS011;49297;43.210;27.914;2023-12-22T12:46:36;33.58;;;26.65;;
63203;SDS011;49297;43.210;27.914;2023-12-22T12:49:06;38.08;;;27.13;;
63203;SDS011;49297;43.210;27.914;2023-12-22T12:51:39;26.77;;;21.73;;
63203;SDS011;49297;43.210;27.914;2023-12-22T12:54:06;27.80;;;21.08;;
63203;SDS011;49297;43.210;27.914;2023-12-22T12:56:37;30.02;;;20.45;;
63203;SDS011;49297;43.210;27.914;2023-12-22T12:59:09;31.90;;;21.48;;
63203;SDS011;49297;43.210;27.914;2023-12-22T13:01:39;32.33;;;20.92;;
63203;SDS011;49297;43.210;27.914;2023-12-22T13:04:09;29.25;;;20.30;;
63203;SDS011;49297;43.210;27.914;2023-12-22T13:06:42;70.45;;;50.83;;
63203;SDS011;49297;43.210;27.914;2023-12-22T13:09:09;31.92;;;20.95;;
63203;SDS011;49297;43.210;27.914;2023-12-22T13:11:35;80.55;;;29.33;;
63203;SDS011;49297;43.210;27.914;2023-12-22T13:14:02;54.38;;;29.42;;
63203;SDS011;49297;43.210;27.914;2023-12-22T13:16:29;32.95;;;18.25;;
63203;SDS011;49297;43.210;27.914;2023-12-22T13:18:56;26.27;;;19.20;;
63203;SDS011;49297;43.210;27.914;2023-12-22T13:21:25;49.45;;;35.83;;
63203;SDS011;49297;43.210;27.914;2023-12-22T13:24:08;41.13;;;22.33;;
63203;SDS011;49297;43.210;27.914;2023-12-22T13:26:37;14.10;;;9.38;;
63203;SDS011;49297;43.210;27.914;2023-12-22T13:29:04;15.20;;;8.27;;
63203;SDS011;49297;43.210;27.914;2023-12-22T13:31:30;53.73;;;34.90;;
63203;SDS011;49297;43.210;27.914;2023-12-22T13:33:57;10.00;;;8.15;;
63203;SDS011;49297;43.210;27.914;2023-12-22T13:36:26;20.08;;;14.43;;
63203;SDS011;49297;43.210;27.914;2023-12-22T13:38:52;16.42;;;11.52;;
63203;SDS011;49297;43.210;27.914;2023-12-22T13:41:18;10.25;;;8.18;;
63203;SDS011;49297;43.210;27.914;2023-12-22T13:43:45;13.10;;;8.07;;
63203;SDS011;49297;43.210;27.914;2023-12-22T13:46:12;9.30;;;6.40;;
63203;SDS011;49297;43.210;27.914;2023-12-22T13:48:40;8.70;;;7.03;;
63203;SDS011;49297;43.210;27.914;2023-12-22T13:51:06;12.75;;;8.45;;
63203;SDS011;49297;43.210;27.914;2023-12-22T13:53:46;27.67;;;9.73;;
63203;SDS011;49297;43.210;27.914;2023-12-22T13:56:12;18.27;;;7.97;;
63203;SDS011;49297;43.210;27.914;2023-12-22T13:58:56;12.32;;;7.10;;
63203;SDS011;49297;43.210;27.914;2023-12-22T14:01:22;12.05;;;6.55;;
63203;SDS011;49297;43.210;27.914;2023-12-22T14:03:48;7.83;;;5.03;;
63203;SDS011;49297;43.210;27.914;2023-12-22T14:06:16;9.43;;;7.85;;
63203;SDS011;49297;43.210;27.914;2023-12-22T14:08:42;10.10;;;7.35;;
63203;SDS011;49297;43.210;27.914;2023-12-22T14:11:08;9.35;;;4.75;;
63203;SDS011;49297;43.210;27.914;2023-12-22T14:13:34;7.53;;;4.28;;
63203;SDS011;49297;43.210;27.914;2023-12-22T14:16:05;11.23;;;7.60;;
63203;SDS011;49297;43.210;27.914;2023-12-22T14:18:34;14.27;;;5.27;;
63203;SDS011;49297;43.210;27.914;2023-12-22T14:21:00;10.30;;;4.45;;
63203;SDS011;49297;43.210;27.914;2023-12-22T14:23:26;9.68;;;6.82;;
63203;SDS011;49297;43.210;27.914;2023-12-22T14:25:52;12.88;;;9.20;;
63203;SDS011;49297;43.210;27.914;2023-12-22T14:28:18;9.83;;;5.13;;
63203;SDS011;49297;43.210;27.914;2023-12-22T14:30:44;11.63;;;7.65;;
63203;SDS011;49297;43.210;27.914;2023-12-22T14:33:10;6.70;;;5.22;;
63203;SDS011;49297;43.210;27.914;2023-12-22T14:35:36;7.28;;;5.63;;
63203;SDS011;49297;43.210;27.914;2023-12-22T14:38:19;14.43;;;6.20;;
63203;SDS011;49297;43.210;27.914;2023-12-22T14:40:45;10.02;;;6.60;;
63203;SDS011;49297;43.210;27.914;2023-12-22T14:43:11;8.82;;;5.80;;
63203;SDS011;49297;43.210;27.914;2023-12-22T14:45:37;7.57;;;5.03;;
63203;SDS011;49297;43.210;27.914;2023-12-22T14:48:04;10.60;;;6.18;;
63203;SDS011;49297;43.210;27.914;2023-12-22T14:50:30;34.40;;;9.57;;
63203;SDS011;49297;43.210;27.914;2023-12-22T14:52:56;16.48;;;5.63;;